createdAt,value
2018-05-07T00:01:12.731Z,93.25
2018-05-07T00:03:41.289Z,93.35
2018-05-07T00:06:10.753Z,93.54
2018-05-07T00:08:39.342Z,93.70
2018-05-07T00:11:08.070Z,93.76
2018-05-07T00:13:36.657Z,93.86
2018-05-07T00:16:05.343Z,93.90
2018-05-07T00:18:34.007Z,93.94
2018-05-07T00:21:04.746Z,94.08
2018-05-07T00:23:34.734Z,94.15
2018-05-07T00:26:04.511Z,94.17
2018-05-07T00:28:33.162Z,94.12
2018-05-07T00:31:01.717Z,93.86
2018-05-07T00:33:30.388Z,93.88
2018-05-07T00:35:59.464Z,93.79
2018-05-07T00:38:28.261Z,93.58
2018-05-07T00:40:56.871Z,93.58
2018-05-07T00:43:25.555Z,93.57
2018-05-07T00:45:54.662Z,93.52
2018-05-07T00:48:23.883Z,93.38
2018-05-07T00:50:53.511Z,93.37
2018-05-07T00:53:22.655Z,93.04
2018-05-07T00:55:51.793Z,93.16
2018-05-07T00:58:21.068Z,93.14
2018-05-07T01:00:50.793Z,93.14
2018-05-07T01:03:19.444Z,93.13
2018-05-07T01:05:48.022Z,92.91
2018-05-07T01:08:16.636Z,92.90
2018-05-07T01:10:45.335Z,92.84
2018-05-07T01:13:14.042Z,92.93
2018-05-07T01:15:43.702Z,92.97
2018-05-07T01:18:12.536Z,92.97
2018-05-07T01:20:41.973Z,92.96
2018-05-07T01:23:12.334Z,92.86
2018-05-07T01:25:41.917Z,92.81
2018-05-07T01:28:10.788Z,92.74
2018-05-07T01:30:39.559Z,92.65
2018-05-07T01:33:08.816Z,92.58
2018-05-07T01:35:37.534Z,92.53
2018-05-07T01:38:06.199Z,92.35
2018-05-07T01:40:36.207Z,92.35
2018-05-07T01:43:04.931Z,92.33
2018-05-07T01:45:33.722Z,92.37
2018-05-07T01:48:02.299Z,92.41
2018-05-07T01:50:31.009Z,92.45
2018-05-07T01:52:59.594Z,92.45
2018-05-07T01:55:30.145Z,92.39
2018-05-07T01:58:00.729Z,92.41
2018-05-07T02:00:30.831Z,92.40
2018-05-07T02:03:01.386Z,92.41
2018-05-07T02:05:30.408Z,92.36
2018-05-07T02:07:59.146Z,92.42
2018-05-07T02:10:28.884Z,92.53
2018-05-07T02:12:58.403Z,92.60
2018-05-07T02:15:27.002Z,92.64
2018-05-07T02:17:55.634Z,92.69
2018-05-07T02:20:24.981Z,92.71
2018-05-07T02:22:54.488Z,92.71
2018-05-07T02:25:24.096Z,92.74
2018-05-07T02:27:52.861Z,92.75
2018-05-07T02:30:21.410Z,92.70
2018-05-07T02:32:50.941Z,92.66
2018-05-07T02:35:20.228Z,92.56
2018-05-07T02:37:51.375Z,92.58
2018-05-07T02:40:21.717Z,92.62
2018-05-07T02:42:50.388Z,92.64
2018-05-07T02:45:20.476Z,92.69
2018-05-07T02:47:50.966Z,92.74
2018-05-07T02:50:21.750Z,92.71
2018-05-07T02:52:51.069Z,92.61
2018-05-07T02:55:20.538Z,92.55
2018-05-07T02:57:49.325Z,92.60
2018-05-07T03:00:17.929Z,92.69
2018-05-07T03:02:48.127Z,92.88
2018-05-07T03:05:17.838Z,92.96
2018-05-07T03:07:47.276Z,93.02
2018-05-07T03:10:15.989Z,93.05
2018-05-07T03:12:45.804Z,93.13
2018-05-07T03:15:15.759Z,93.22
2018-05-07T03:17:45.518Z,93.25
2018-05-07T03:20:14.444Z,93.25
2018-05-07T03:22:43.454Z,93.25
2018-05-07T03:25:12.641Z,93.24
2018-05-07T03:27:41.995Z,93.18
2018-05-07T03:30:10.712Z,93.19
2018-05-07T03:32:40.512Z,93.16
2018-05-07T03:35:10.073Z,93.12
2018-05-07T03:37:38.618Z,93.12
2018-05-07T03:40:07.286Z,93.05
2018-05-07T03:42:36.365Z,93.04
2018-05-07T03:45:06.995Z,92.98
2018-05-07T03:47:35.775Z,92.93
2018-05-07T03:50:05.760Z,92.96
2018-05-07T03:52:35.079Z,92.97
2018-05-07T03:55:05.899Z,92.99
2018-05-07T03:57:34.706Z,92.99
2018-05-07T04:00:04.498Z,92.98
2018-05-07T04:02:33.192Z,93.01
2018-05-07T04:05:02.209Z,92.98
2018-05-07T04:07:31.912Z,93.05
2018-05-07T04:10:01.499Z,93.21
2018-05-07T04:12:30.861Z,93.29
2018-05-07T04:15:00.536Z,93.32
2018-05-07T04:17:47.028Z,93.33
2018-05-07T04:20:33.668Z,93.27
2018-05-07T04:23:21.183Z,93.15
2018-05-07T04:25:50.086Z,93.06
2018-05-07T04:28:20.526Z,93.00
2018-05-07T04:30:50.481Z,92.99
2018-05-07T04:33:19.427Z,92.98
2018-05-07T04:35:48.305Z,92.91
2018-05-07T04:38:17.045Z,92.83
2018-05-07T04:40:46.730Z,92.70
2018-05-07T04:43:16.061Z,92.65
2018-05-07T04:45:44.668Z,92.58
2018-05-07T04:48:13.317Z,92.50
2018-05-07T04:50:41.992Z,92.43
2018-05-07T04:53:10.600Z,92.13
2018-05-07T04:55:39.248Z,92.00
2018-05-07T04:58:08.490Z,91.85
2018-05-07T05:00:38.950Z,91.77
2018-05-07T05:03:07.772Z,91.56
2018-05-07T05:05:36.512Z,91.41
2018-05-07T05:08:05.150Z,91.27
2018-05-07T05:10:34.497Z,91.16
2018-05-07T05:13:03.146Z,90.89
2018-05-07T05:15:32.962Z,90.15
2018-05-07T05:18:01.948Z,90.34
2018-05-07T05:20:31.122Z,90.24
2018-05-07T05:23:00.365Z,89.70
2018-05-07T05:25:30.210Z,89.83
2018-05-07T05:28:00.717Z,89.41
2018-05-07T05:30:29.639Z,88.85
2018-05-07T05:33:00.073Z,88.68
2018-05-07T05:35:28.820Z,88.10
2018-05-07T05:37:59.132Z,87.65
2018-05-07T05:40:27.945Z,87.36
2018-05-07T05:42:56.851Z,86.18
2018-05-07T05:45:25.483Z,86.11
2018-05-07T05:47:55.355Z,85.59
2018-05-07T05:50:24.380Z,85.03
2018-05-07T05:52:53.152Z,84.44
2018-05-07T05:55:22.644Z,83.36
2018-05-07T05:57:51.789Z,81.86
2018-05-07T06:00:21.440Z,78.54
2018-05-07T06:02:50.343Z,76.22
2018-05-07T06:05:20.104Z,74.38
2018-05-07T06:07:48.848Z,72.55
2018-05-07T06:10:17.557Z,71.49
2018-05-07T06:12:47.132Z,72.53
2018-05-07T06:15:16.216Z,72.57
2018-05-07T06:17:45.623Z,69.32
2018-05-07T06:20:14.345Z,66.73
2018-05-07T06:22:44.318Z,66.50
2018-05-07T06:25:13.988Z,64.77
2018-05-07T06:27:43.962Z,65.52
2018-05-07T06:30:12.677Z,65.29
2018-05-07T06:32:42.180Z,64.48
2018-05-07T06:35:11.651Z,62.85
2018-05-07T06:37:41.220Z,63.58
2018-05-07T06:40:09.885Z,64.82
2018-05-07T06:42:39.375Z,66.31
2018-05-07T06:45:08.364Z,65.18
2018-05-07T06:47:38.123Z,62.67
2018-05-07T06:50:08.041Z,58.23
2018-05-07T06:52:38.377Z,55.56
2018-05-07T06:55:07.988Z,54.90
2018-05-07T06:57:36.852Z,54.23
2018-05-07T07:00:05.989Z,53.73
2018-05-07T07:02:34.783Z,50.76
2018-05-07T07:05:04.414Z,48.84
2018-05-07T07:07:32.994Z,48.04
2018-05-07T07:10:04.181Z,46.61
2018-05-07T07:12:33.125Z,46.91
2018-05-07T07:15:02.664Z,45.89
2018-05-07T07:17:31.730Z,44.97
2018-05-07T07:20:02.162Z,44.91
2018-05-07T07:22:31.421Z,43.49
2018-05-07T07:25:00.392Z,43.93
2018-05-07T07:27:30.023Z,44.56
2018-05-07T07:30:00.297Z,46.13
2018-05-07T07:32:29.179Z,44.53
2018-05-07T07:35:01.507Z,43.32
2018-05-07T07:37:30.822Z,47.09
2018-05-07T07:40:00.172Z,45.37
2018-05-07T07:42:29.309Z,43.15
2018-05-07T07:44:58.951Z,42.15
2018-05-07T07:47:28.619Z,41.08
2018-05-07T07:49:59.253Z,42.70
2018-05-07T07:52:28.291Z,41.25
2018-05-07T07:54:57.095Z,40.40
2018-05-07T07:57:26.606Z,39.62
2018-05-07T07:59:55.532Z,40.31
2018-05-07T08:02:24.559Z,39.56
2018-05-07T08:04:53.453Z,38.74
2018-05-07T08:07:22.572Z,41.41
2018-05-07T08:09:51.988Z,40.12
2018-05-07T08:12:20.790Z,38.51
2018-05-07T08:14:50.201Z,37.22
2018-05-07T08:17:21.628Z,36.73
2018-05-07T08:19:50.360Z,36.87
2018-05-07T08:22:19.616Z,37.22
2018-05-07T08:24:49.451Z,37.75
2018-05-07T08:27:18.970Z,37.05
2018-05-07T08:29:47.985Z,36.36
2018-05-07T08:32:16.989Z,36.09
2018-05-07T08:34:46.833Z,34.55
2018-05-07T08:37:15.926Z,35.36
2018-05-07T08:39:44.496Z,35.78
2018-05-07T08:42:13.886Z,35.02
2018-05-07T08:44:43.482Z,35.35
2018-05-07T08:47:12.772Z,36.32
2018-05-07T08:49:42.469Z,35.83
2018-05-07T08:52:11.380Z,36.56
2018-05-07T08:54:40.479Z,35.58
2018-05-07T08:57:09.085Z,37.43
2018-05-07T08:59:38.574Z,36.42
2018-05-07T09:02:07.392Z,36.27
2018-05-07T09:04:38.713Z,35.84
2018-05-07T09:07:10.459Z,36.47
2018-05-07T09:09:40.748Z,36.08
2018-05-07T09:12:09.743Z,35.64
2018-05-07T09:14:43.263Z,34.83
2018-05-07T09:17:12.185Z,34.56
2018-05-07T09:19:42.095Z,33.98
2018-05-07T09:22:11.364Z,33.71
2018-05-07T09:24:40.686Z,34.50
2018-05-07T09:27:09.700Z,35.02
2018-05-07T09:29:38.786Z,35.82
2018-05-07T09:32:08.554Z,35.74
2018-05-07T09:34:37.811Z,38.32
2018-05-07T09:37:08.797Z,39.57
2018-05-07T09:39:38.949Z,36.71
2018-05-07T09:42:09.871Z,35.60
2018-05-07T09:44:39.920Z,34.12
2018-05-07T09:47:09.981Z,34.59
2018-05-07T09:49:39.311Z,36.28
2018-05-07T09:52:08.515Z,39.53
2018-05-07T09:54:38.402Z,38.14
2018-05-07T09:57:07.546Z,36.31
2018-05-07T09:59:37.634Z,35.01
2018-05-07T10:02:08.196Z,35.14
2018-05-07T10:04:37.092Z,33.94
2018-05-07T10:07:06.361Z,34.04
2018-05-07T10:09:35.433Z,34.61
2018-05-07T10:12:04.220Z,33.89
2018-05-07T10:14:33.406Z,33.47
2018-05-07T10:17:04.644Z,34.27
2018-05-07T10:19:34.437Z,35.53
2018-05-07T10:22:04.017Z,34.79
2018-05-07T10:24:35.966Z,36.62
2018-05-07T10:27:06.345Z,37.22
2018-05-07T10:29:36.120Z,36.54
2018-05-07T10:32:05.102Z,34.22
2018-05-07T10:34:34.093Z,35.86
2018-05-07T10:37:04.329Z,35.87
2018-05-07T10:39:33.004Z,35.27
2018-05-07T10:42:01.593Z,36.65
2018-05-07T10:44:30.174Z,37.32
2018-05-07T10:46:59.717Z,37.77
2018-05-07T10:49:28.732Z,38.32
2018-05-07T10:51:57.442Z,40.20
2018-05-07T10:54:27.906Z,42.00
2018-05-07T10:56:57.510Z,39.30
2018-05-07T10:59:28.476Z,42.89
2018-05-07T11:01:58.275Z,43.86
2018-05-07T11:04:28.827Z,41.14
2018-05-07T11:07:00.058Z,39.26
2018-05-07T11:09:30.134Z,42.25
2018-05-07T11:12:00.208Z,39.25
2018-05-07T11:14:30.031Z,36.50
2018-05-07T11:16:59.349Z,34.17
2018-05-07T11:19:28.366Z,32.32
2018-05-07T11:21:58.148Z,30.73
2018-05-07T11:24:28.735Z,31.97
2018-05-07T11:26:58.607Z,34.73
2018-05-07T11:29:27.383Z,32.31
2018-05-07T11:31:56.850Z,34.22
2018-05-07T11:34:26.301Z,33.09
2018-05-07T11:36:55.924Z,31.94
2018-05-07T11:39:24.819Z,32.30
2018-05-07T11:41:53.693Z,30.53
2018-05-07T11:44:24.072Z,32.14
2018-05-07T11:46:53.987Z,30.37
2018-05-07T11:49:23.442Z,27.67
2018-05-07T11:51:53.140Z,26.91
2018-05-07T11:54:22.486Z,26.21
2018-05-07T11:56:51.059Z,26.19
2018-05-07T11:59:19.781Z,26.10
2018-05-07T12:01:48.739Z,25.96
2018-05-07T12:04:18.526Z,27.58
2018-05-07T12:06:47.669Z,28.37
2018-05-07T12:09:17.607Z,30.02
2018-05-07T12:11:46.789Z,31.99
2018-05-07T12:14:16.708Z,31.56
2018-05-07T12:16:45.990Z,33.20
2018-05-07T12:19:16.876Z,34.03
2018-05-07T12:21:45.641Z,33.92
2018-05-07T12:24:14.345Z,30.88
2018-05-07T12:26:43.612Z,31.31
2018-05-07T12:29:12.303Z,30.12
2018-05-07T12:31:41.755Z,29.51
2018-05-07T12:34:10.645Z,30.07
2018-05-07T12:36:40.085Z,31.88
2018-05-07T12:39:09.110Z,33.62
2018-05-07T12:41:37.965Z,33.42
2018-05-07T12:44:08.535Z,33.84
2018-05-07T12:46:38.816Z,33.62
2018-05-07T12:49:07.845Z,34.53
2018-05-07T12:51:37.613Z,34.32
2018-05-07T12:54:06.714Z,33.89
2018-05-07T12:56:35.637Z,31.33
2018-05-07T12:59:04.344Z,30.45
2018-05-07T13:01:33.131Z,29.88
2018-05-07T13:04:01.992Z,37.51
2018-05-07T13:06:31.369Z,45.90
2018-05-07T13:09:00.600Z,55.43
2018-05-07T13:11:30.128Z,58.18
2018-05-07T13:14:00.534Z,58.15
2018-05-07T13:16:30.649Z,61.03
2018-05-07T13:19:00.916Z,65.84
2018-05-07T13:21:30.686Z,63.28
2018-05-07T13:24:00.609Z,62.48
2018-05-07T13:26:30.725Z,66.27
2018-05-07T13:29:00.288Z,67.25
2018-05-07T13:31:29.248Z,65.87
2018-05-07T13:33:58.881Z,65.85
2018-05-07T13:36:28.112Z,67.57
2018-05-07T13:38:58.138Z,69.71
2018-05-07T13:41:28.583Z,70.94
2018-05-07T13:43:58.438Z,70.89
2018-05-07T13:46:30.886Z,71.63
2018-05-07T13:49:03.371Z,68.91
2018-05-07T13:51:34.286Z,65.62
2018-05-07T13:54:04.428Z,65.69
2018-05-07T13:56:33.437Z,66.42
2018-05-07T13:59:03.571Z,65.78
2018-05-07T14:01:33.028Z,66.23
2018-05-07T14:04:03.054Z,66.79
2018-05-07T14:06:32.062Z,70.86
2018-05-07T14:09:00.927Z,72.27
2018-05-07T14:11:30.680Z,72.34
2018-05-07T14:13:59.384Z,72.69
2018-05-07T14:16:29.836Z,71.59
2018-05-07T14:18:58.856Z,75.78
2018-05-07T14:21:27.561Z,81.37
2018-05-07T14:23:56.472Z,84.66
2018-05-07T14:26:25.093Z,86.27
2018-05-07T14:28:55.833Z,86.13
2018-05-07T14:31:24.901Z,86.30
2018-05-07T14:33:54.758Z,85.55
2018-05-07T14:36:24.624Z,86.34
2018-05-07T14:38:54.365Z,85.69
2018-05-07T14:41:23.772Z,86.78
2018-05-07T14:43:53.368Z,87.42
2018-05-07T14:46:22.412Z,88.07
2018-05-07T14:48:51.537Z,88.00
2018-05-07T14:51:20.395Z,88.68
2018-05-07T14:53:50.378Z,88.93
2018-05-07T14:56:20.110Z,88.76
2018-05-07T14:58:51.117Z,90.46
2018-05-07T15:01:23.328Z,90.76
2018-05-07T15:03:52.653Z,90.72
2018-05-07T15:06:22.396Z,90.44
2018-05-07T15:08:52.627Z,87.24
2018-05-07T15:11:23.716Z,86.35
2018-05-07T15:16:48.643Z,87.59
2018-05-07T15:19:17.360Z,88.41
2018-05-07T15:21:46.076Z,89.33
2018-05-07T15:24:16.258Z,89.77
2018-05-07T15:26:45.013Z,89.88
2018-05-07T15:29:14.092Z,89.84
2018-05-07T15:31:44.623Z,89.73
2018-05-07T15:34:14.376Z,89.55
2018-05-07T15:36:43.119Z,89.44
2018-05-07T15:39:11.822Z,89.82
2018-05-07T15:41:41.738Z,88.35
2018-05-07T15:44:10.345Z,88.49
2018-05-07T15:46:40.270Z,88.41
2018-05-07T15:49:09.303Z,88.78
2018-05-07T15:51:44.233Z,89.11
2018-05-07T15:54:15.494Z,89.48
2018-05-07T15:56:44.407Z,89.41
2018-05-07T15:59:13.119Z,88.75
2018-05-07T16:01:41.981Z,88.77
2018-05-07T16:04:11.058Z,88.80
2018-05-07T16:06:40.221Z,89.01
2018-05-07T16:09:09.307Z,88.87
2018-05-07T16:11:39.421Z,88.87
2018-05-07T16:14:11.875Z,87.72
2018-05-07T16:16:42.009Z,88.02
2018-05-07T16:19:14.093Z,88.34
2018-05-07T16:21:43.832Z,89.11
2018-05-07T16:24:15.179Z,88.60
2018-05-07T16:26:43.825Z,88.74
2018-05-07T16:29:14.004Z,88.31
2018-05-07T16:31:42.926Z,88.34
2018-05-07T16:34:13.209Z,88.93
2018-05-07T16:36:42.890Z,89.41
2018-05-07T16:39:11.704Z,89.50
2018-05-07T16:41:41.133Z,89.58
2018-05-07T16:44:11.271Z,89.38
2018-05-07T16:46:40.627Z,89.36
2018-05-07T16:49:11.232Z,89.73
2018-05-07T16:51:40.341Z,89.56
2018-05-07T16:54:09.127Z,89.28
2018-05-07T16:56:37.702Z,88.40
2018-05-07T16:59:06.584Z,88.46
2018-05-07T17:01:35.395Z,88.45
2018-05-07T17:04:05.146Z,88.67
2018-05-07T17:06:34.324Z,88.90
2018-05-07T17:09:04.316Z,88.61
2018-05-07T17:11:32.948Z,87.70
2018-05-07T17:14:02.775Z,87.28
2018-05-07T17:16:35.649Z,87.66
2018-05-07T17:19:04.624Z,87.92
2018-05-07T17:21:33.368Z,88.21
2018-05-07T17:24:02.235Z,88.61
2018-05-07T17:26:40.181Z,88.64
2018-05-07T17:29:09.366Z,88.65
2018-05-07T17:31:39.268Z,88.26
2018-05-07T17:34:09.074Z,88.89
2018-05-07T17:36:40.273Z,89.03
2018-05-07T17:39:09.398Z,89.51
2018-05-07T17:41:41.672Z,89.05
2018-05-07T17:44:29.453Z,89.25
2018-05-07T17:47:16.243Z,89.37
2018-05-07T17:49:45.063Z,89.56
2018-05-07T17:52:15.307Z,89.80
2018-05-07T17:54:47.531Z,90.08
2018-05-07T17:57:16.474Z,90.29
2018-05-07T17:59:45.907Z,90.23
2018-05-07T18:02:15.340Z,90.40
2018-05-07T18:04:43.961Z,90.81
2018-05-07T18:07:14.235Z,91.02
2018-05-07T18:09:45.057Z,90.81
2018-05-07T18:12:14.080Z,90.62
2018-05-07T18:14:42.889Z,90.43
2018-05-07T18:17:11.434Z,90.39
2018-05-07T18:19:40.208Z,90.24
2018-05-07T18:22:09.008Z,90.30
2018-05-07T18:24:38.078Z,90.49
2018-05-07T18:27:08.937Z,90.80
2018-05-07T18:29:38.654Z,90.99
2018-05-07T18:32:10.237Z,91.00
2018-05-07T18:34:39.803Z,90.79
2018-05-07T18:37:08.559Z,90.72
2018-05-07T18:39:40.011Z,90.71
2018-05-07T18:42:10.762Z,90.84
2018-05-07T18:44:41.795Z,90.89
2018-05-07T18:47:12.499Z,90.99
2018-05-07T18:49:41.655Z,90.90
2018-05-07T18:52:11.169Z,90.83
2018-05-07T18:54:41.554Z,90.95
2018-05-07T18:57:10.890Z,90.89
2018-05-07T18:59:39.882Z,90.80
2018-05-07T19:02:08.692Z,90.96
2018-05-07T19:04:48.055Z,90.92
2018-05-07T19:07:18.476Z,90.92
2018-05-07T19:09:47.599Z,90.80
2018-05-07T19:12:17.596Z,91.00
2018-05-07T19:14:48.819Z,91.02
2018-05-07T19:17:17.941Z,91.15
2018-05-07T19:19:46.759Z,91.67
2018-05-07T19:22:16.527Z,91.38
2018-05-07T19:24:45.227Z,91.24
2018-05-07T19:27:15.016Z,91.30
2018-05-07T19:29:44.466Z,91.43
2018-05-07T19:32:13.553Z,91.79
2018-05-07T19:34:43.923Z,91.78
2018-05-07T19:37:15.158Z,91.65
2018-05-07T19:39:48.331Z,91.74
2018-05-07T19:42:19.749Z,91.80
2018-05-07T19:44:49.851Z,92.03
2018-05-07T19:47:21.960Z,92.03
2018-05-07T19:49:51.688Z,92.06
2018-05-07T19:52:24.891Z,92.05
2018-05-07T19:54:57.013Z,92.08
2018-05-07T19:57:28.492Z,92.20
2018-05-07T20:00:00.353Z,92.47
2018-05-07T20:02:30.582Z,92.63
2018-05-07T20:04:59.470Z,92.74
2018-05-07T20:07:29.421Z,92.78
2018-05-07T20:10:05.244Z,92.72
2018-05-07T20:12:34.701Z,92.82
2018-05-07T20:15:06.228Z,92.89
2018-05-07T20:17:38.536Z,92.99
2018-05-07T20:20:10.319Z,92.99
2018-05-07T20:22:40.205Z,92.83
2018-05-07T20:25:09.801Z,92.92
2018-05-07T20:27:39.612Z,92.85
2018-05-07T20:30:10.135Z,92.78
2018-05-07T20:32:41.920Z,92.78
2018-05-07T20:35:19.149Z,92.61
2018-05-07T20:37:49.277Z,92.51
2018-05-07T20:40:19.485Z,92.43
2018-05-07T20:42:51.550Z,92.31
2018-05-07T20:45:21.199Z,92.36
2018-05-07T20:47:51.814Z,92.15
2018-05-07T20:50:23.414Z,92.04
2018-05-07T20:52:54.606Z,92.15
2018-05-07T20:55:24.228Z,92.04
2018-05-07T20:57:54.192Z,91.28
2018-05-07T21:00:23.298Z,90.75
2018-05-07T21:02:52.122Z,90.27
2018-05-07T21:05:21.387Z,90.27
2018-05-07T21:07:51.736Z,90.24
2018-05-07T21:10:21.500Z,89.85
2018-05-07T21:12:50.173Z,89.78
2018-05-07T21:15:19.127Z,89.79
2018-05-07T21:17:48.463Z,89.80
2018-05-07T21:20:17.857Z,89.26
2018-05-07T21:22:46.525Z,89.04
2018-05-07T21:25:15.546Z,89.25
2018-05-07T21:27:44.367Z,89.50
2018-05-07T21:30:13.804Z,89.84
2018-05-07T21:32:43.202Z,89.85
2018-05-07T21:35:11.954Z,88.08
2018-05-07T21:37:40.498Z,88.53
2018-05-07T21:40:09.220Z,88.87
2018-05-07T21:42:38.459Z,88.91
2018-05-07T21:45:07.904Z,88.96
2018-05-07T21:47:37.248Z,89.09
2018-05-07T21:50:06.885Z,89.23
2018-05-07T21:52:35.698Z,89.48
2018-05-07T21:55:04.499Z,89.71
2018-05-07T21:57:33.390Z,89.79
2018-05-07T22:00:02.202Z,89.92
2018-05-07T22:02:30.987Z,90.02
2018-05-07T22:05:00.556Z,90.07
2018-05-07T22:07:29.320Z,90.17
2018-05-07T22:09:58.771Z,90.02
2018-05-07T22:12:27.571Z,89.90
2018-05-07T22:14:56.236Z,90.01
2018-05-07T22:17:25.638Z,90.18
2018-05-07T22:19:55.275Z,90.35
2018-05-07T22:22:24.882Z,90.35
2018-05-07T22:24:53.696Z,90.41
2018-05-07T22:27:22.474Z,90.52
2018-05-07T22:29:51.923Z,90.79
2018-05-07T22:32:20.686Z,90.99
2018-05-07T22:34:49.382Z,91.25
2018-05-07T22:37:18.036Z,91.34
2018-05-07T22:39:46.717Z,91.37
2018-05-07T22:42:16.055Z,91.32
2018-05-07T22:44:45.486Z,91.42
2018-05-07T22:47:15.657Z,91.44
2018-05-07T22:49:45.912Z,91.55
2018-05-07T22:52:16.402Z,91.57
2018-05-07T22:54:46.565Z,91.63
2018-05-07T22:57:15.388Z,91.83
2018-05-07T22:59:45.289Z,91.94
2018-05-07T23:02:15.014Z,91.87
2018-05-07T23:04:43.747Z,91.84
2018-05-07T23:07:12.824Z,91.84
2018-05-07T23:09:41.790Z,91.86
2018-05-07T23:12:10.491Z,92.00
2018-05-07T23:14:39.718Z,91.98
2018-05-07T23:17:08.872Z,91.97
2018-05-07T23:19:41.018Z,92.04
2018-05-07T23:22:10.415Z,92.01
2018-05-07T23:24:40.118Z,92.03
2018-05-07T23:27:08.816Z,92.14
2018-05-07T23:29:38.578Z,92.17
2018-05-07T23:32:09.059Z,91.97
2018-05-07T23:34:38.525Z,91.89
2018-05-07T23:37:07.201Z,91.89
2018-05-07T23:39:36.178Z,91.85
2018-05-07T23:42:05.468Z,91.86
2018-05-07T23:44:35.518Z,91.84
2018-05-07T23:47:04.896Z,91.75
2018-05-07T23:49:33.840Z,91.72
2018-05-07T23:52:02.910Z,91.58
2018-05-07T23:54:31.795Z,91.53
2018-05-07T23:57:01.411Z,91.58
2018-05-07T23:59:30.867Z,91.60
